createdAt,value
2023-04-27T00:00:57.831Z,10.60
2023-04-27T00:03:25.036Z,10.60
2023-04-27T00:05:52.669Z,10.79
2023-04-27T00:08:19.806Z,10.84
2023-04-27T00:10:46.866Z,10.63
2023-04-27T00:13:13.915Z,10.68
2023-04-27T00:15:41.115Z,10.54
2023-04-27T00:18:08.337Z,10.68
2023-04-27T00:20:35.649Z,10.63
2023-04-27T00:23:02.764Z,10.77
2023-04-27T00:25:29.884Z,10.58
2023-04-27T00:27:57.032Z,10.71
2023-04-27T00:30:24.069Z,10.80
2023-04-27T00:32:51.151Z,10.50
2023-04-27T00:35:18.303Z,9.63
2023-04-27T00:37:45.867Z,10.56
2023-04-27T00:40:13.496Z,10.74
2023-04-27T00:42:40.556Z,10.55
2023-04-27T00:45:08.785Z,10.78
2023-04-27T00:47:36.579Z,10.31
2023-04-27T00:50:08.429Z,10.13
2023-04-27T00:52:37.462Z,10.30
2023-04-27T00:55:06.174Z,10.30
2023-04-27T00:57:34.420Z,10.61
2023-04-27T01:00:02.263Z,10.32
2023-04-27T01:02:30.486Z,10.58
2023-04-27T01:04:57.834Z,10.49
2023-04-27T01:07:27.746Z,10.87
2023-04-27T01:09:54.940Z,10.58
2023-04-27T01:12:22.510Z,10.32
2023-04-27T01:14:49.555Z,10.54
2023-04-27T01:17:18.192Z,10.41
2023-04-27T01:19:45.901Z,10.08
2023-04-27T01:22:15.159Z,10.10
2023-04-27T01:24:42.250Z,10.22
2023-04-27T01:27:09.394Z,10.25
2023-04-27T01:29:36.435Z,10.07
2023-04-27T01:32:03.833Z,10.12
2023-04-27T01:34:31.022Z,9.15
2023-04-27T01:37:00.179Z,9.82
2023-04-27T01:39:27.280Z,9.93
2023-04-27T01:41:55.214Z,9.76
2023-04-27T01:44:24.551Z,9.49
2023-04-27T01:46:51.830Z,9.45
2023-04-27T01:49:18.930Z,9.52
2023-04-27T01:51:46.061Z,9.48
2023-04-27T01:54:13.169Z,9.60
2023-04-27T01:56:40.478Z,9.53
2023-04-27T01:59:07.569Z,9.60
2023-04-27T02:01:34.679Z,9.73
2023-04-27T02:04:01.896Z,9.52
2023-04-27T02:06:29.069Z,9.27
2023-04-27T02:08:56.149Z,9.25
2023-04-27T02:11:23.313Z,9.54
2023-04-27T02:13:50.421Z,9.88
2023-04-27T02:16:17.460Z,10.15
2023-04-27T02:18:44.678Z,9.90
2023-04-27T02:21:12.430Z,9.51
2023-04-27T02:23:39.537Z,9.20
2023-04-27T02:26:06.661Z,9.39
2023-04-27T02:28:33.768Z,9.70
2023-04-27T02:31:01.382Z,9.84
2023-04-27T02:33:28.404Z,9.64
2023-04-27T02:35:55.650Z,9.86
2023-04-27T02:38:22.881Z,10.03
2023-04-27T02:40:55.105Z,10.03
2023-04-27T02:43:22.800Z,9.27
2023-04-27T02:45:49.911Z,9.78
2023-04-27T02:48:17.072Z,9.76
2023-04-27T02:50:45.429Z,10.10
2023-04-27T02:53:12.990Z,9.73
2023-04-27T02:55:48.165Z,9.62
2023-04-27T02:58:16.759Z,9.69
2023-04-27T03:00:45.256Z,9.93
2023-04-27T03:03:12.963Z,10.15
2023-04-27T03:05:40.116Z,9.64
2023-04-27T03:08:07.165Z,9.88
2023-04-27T03:10:34.198Z,9.62
2023-04-27T03:13:01.366Z,10.01
2023-04-27T03:15:28.445Z,9.67
2023-04-27T03:17:55.835Z,9.58
2023-04-27T03:20:23.081Z,9.80
2023-04-27T03:22:50.441Z,9.42
2023-04-27T03:25:17.631Z,9.32
2023-04-27T03:27:44.705Z,9.50
2023-04-27T03:30:12.777Z,9.48
2023-04-27T03:32:39.964Z,9.42
2023-04-27T03:35:08.027Z,9.20
2023-04-27T03:37:35.440Z,9.44
2023-04-27T03:40:02.555Z,9.36
2023-04-27T03:42:29.696Z,9.68
2023-04-27T03:44:56.916Z,9.78
2023-04-27T03:47:24.512Z,9.58
2023-04-27T03:49:51.957Z,9.52
2023-04-27T03:52:21.027Z,9.48
2023-04-27T03:54:48.274Z,9.31
2023-04-27T03:57:15.946Z,9.66
2023-04-27T03:59:42.947Z,9.68
2023-04-27T04:02:11.613Z,9.33
2023-04-27T04:04:39.095Z,9.67
2023-04-27T04:07:06.399Z,9.41
2023-04-27T04:09:33.797Z,9.43
2023-04-27T04:12:01.894Z,9.20
2023-04-27T04:14:28.977Z,9.03
2023-04-27T04:16:56.239Z,9.75
2023-04-27T04:19:23.840Z,9.79
2023-04-27T04:21:51.088Z,9.68
2023-04-27T04:24:18.716Z,10.03
2023-04-27T04:26:48.753Z,9.34
2023-04-27T04:29:16.169Z,9.67
2023-04-27T04:31:43.588Z,9.22
2023-04-27T04:34:11.014Z,9.07
2023-04-27T04:36:38.151Z,9.51
2023-04-27T04:39:05.315Z,9.07
2023-04-27T04:41:33.011Z,9.85
2023-04-27T04:44:03.147Z,9.93
2023-04-27T04:46:30.624Z,9.98
2023-04-27T04:48:57.782Z,10.01
2023-04-27T04:51:24.938Z,9.87
2023-04-27T04:53:52.027Z,9.74
2023-04-27T04:56:19.154Z,9.47
2023-04-27T04:58:46.445Z,9.92
2023-04-27T05:01:16.466Z,10.13
2023-04-27T05:03:44.170Z,9.64
2023-04-27T05:06:11.841Z,9.48
2023-04-27T05:08:38.991Z,10.18
2023-04-27T05:11:06.229Z,9.99
2023-04-27T05:13:33.603Z,9.70
2023-04-27T05:16:04.842Z,9.50
2023-04-27T05:18:32.669Z,9.86
2023-04-27T05:20:59.819Z,9.74
2023-04-27T05:23:27.735Z,10.30
2023-04-27T05:25:57.771Z,10.04
2023-04-27T05:28:24.803Z,9.66
2023-04-27T05:30:52.674Z,10.59
2023-04-27T05:33:20.707Z,10.25
2023-04-27T05:35:47.738Z,10.94
2023-04-27T05:38:17.397Z,10.21
2023-04-27T05:40:44.536Z,11.26
2023-04-27T05:43:11.629Z,10.71
2023-04-27T05:45:44.224Z,10.93
2023-04-27T05:48:11.362Z,10.99
2023-04-27T05:50:38.736Z,11.04
2023-04-27T05:53:07.153Z,11.33
2023-04-27T05:55:34.493Z,11.47
2023-04-27T05:58:08.654Z,11.99
2023-04-27T06:00:36.738Z,11.97
2023-04-27T06:03:04.030Z,11.54
2023-04-27T06:05:31.584Z,11.72
2023-04-27T06:07:58.762Z,11.53
2023-04-27T06:10:25.947Z,11.74
2023-04-27T06:12:54.430Z,11.36
2023-04-27T06:15:21.756Z,11.22
2023-04-27T06:17:48.991Z,11.59
2023-04-27T06:20:16.188Z,10.92
2023-04-27T06:22:43.689Z,10.99
2023-04-27T06:25:11.130Z,11.73
2023-04-27T06:27:38.592Z,11.24
2023-04-27T06:30:06.864Z,11.72
2023-04-27T06:32:33.953Z,12.10
2023-04-27T06:35:01.539Z,11.38
2023-04-27T06:37:28.814Z,11.98
2023-04-27T06:39:56.180Z,10.36
2023-04-27T06:42:23.203Z,10.10
2023-04-27T06:44:56.218Z,10.71
2023-04-27T06:47:23.384Z,11.16
2023-04-27T06:49:50.924Z,11.67
2023-04-27T06:52:18.413Z,11.23
2023-04-27T06:54:45.595Z,11.11
2023-04-27T06:57:13.800Z,11.72
2023-04-27T06:59:40.878Z,11.99
2023-04-27T07:02:08.040Z,11.33
2023-04-27T07:04:36.614Z,11.79
2023-04-27T07:07:03.965Z,11.92
2023-04-27T07:09:31.283Z,11.82
2023-04-27T07:11:58.895Z,12.02
2023-04-27T07:14:26.195Z,12.57
2023-04-27T07:16:53.383Z,12.02
2023-04-27T07:19:20.428Z,11.98
2023-04-27T07:21:48.122Z,12.01
2023-04-27T07:24:17.803Z,12.43
2023-04-27T07:26:45.534Z,13.05
2023-04-27T07:29:25.564Z,11.67
2023-04-27T07:31:55.758Z,13.30
2023-04-27T07:34:24.043Z,12.86
2023-04-27T07:36:54.376Z,13.09
2023-04-27T07:39:21.819Z,11.88
2023-04-27T07:41:50.044Z,12.45
2023-04-27T07:44:19.467Z,12.93
2023-04-27T07:46:48.775Z,13.42
2023-04-27T07:49:16.649Z,12.61
2023-04-27T07:51:43.737Z,12.52
2023-04-27T07:54:12.827Z,11.20
2023-04-27T07:56:43.185Z,11.74
2023-04-27T07:59:10.501Z,11.53
2023-04-27T08:01:38.202Z,13.04
2023-04-27T08:04:06.141Z,13.24
2023-04-27T08:06:34.336Z,12.76
2023-04-27T08:09:04.081Z,13.67
2023-04-27T08:11:32.082Z,14.56
2023-04-27T08:13:59.232Z,15.25
2023-04-27T08:16:35.249Z,13.87
2023-04-27T08:19:15.658Z,13.04
2023-04-27T08:21:43.072Z,13.58
2023-04-27T08:24:15.685Z,13.50
2023-04-27T08:26:42.907Z,13.59
2023-04-27T08:29:27.011Z,12.77
2023-04-27T08:32:00.023Z,12.84
2023-04-27T08:34:28.970Z,12.67
2023-04-27T08:36:56.992Z,13.25
2023-04-27T08:39:32.092Z,14.35
2023-04-27T08:42:25.501Z,13.89
2023-04-27T08:44:52.594Z,14.14
2023-04-27T08:47:25.759Z,14.56
2023-04-27T08:50:05.311Z,13.53
2023-04-27T08:52:32.561Z,12.49
2023-04-27T08:55:02.602Z,14.27
2023-04-27T08:57:32.182Z,14.19
2023-04-27T09:00:00.892Z,13.94
2023-04-27T09:02:29.983Z,13.79
2023-04-27T09:04:57.327Z,12.06
2023-04-27T09:07:27.352Z,13.48
2023-04-27T09:10:34.594Z,14.65
2023-04-27T09:13:02.111Z,13.18
2023-04-27T09:15:32.189Z,14.70
2023-04-27T09:17:59.732Z,15.58
2023-04-27T09:20:27.556Z,14.44
2023-04-27T09:22:55.949Z,14.92
2023-04-27T09:25:32.494Z,14.68
2023-04-27T09:28:01.307Z,15.44
2023-04-27T09:30:30.194Z,14.65
2023-04-27T09:33:04.071Z,15.33
2023-04-27T09:35:34.139Z,14.63
2023-04-27T09:38:01.991Z,15.14
2023-04-27T09:40:31.232Z,14.96
2023-04-27T09:43:01.947Z,14.03
2023-04-27T09:45:29.965Z,14.17
2023-04-27T09:48:03.783Z,14.16
2023-04-27T09:50:38.418Z,14.29
2023-04-27T09:53:36.938Z,13.69
2023-04-27T09:56:50.536Z,14.98
2023-04-27T09:59:45.463Z,15.23
2023-04-27T10:02:25.168Z,13.74
2023-04-27T10:05:46.161Z,14.66
2023-04-27T10:08:13.616Z,13.70
2023-04-27T10:10:50.710Z,15.02
2023-04-27T10:13:29.743Z,16.49
2023-04-27T10:15:56.837Z,16.05
2023-04-27T10:18:31.786Z,15.92
2023-04-27T10:21:11.127Z,17.03
2023-04-27T10:28:04.610Z,16.32
2023-04-27T10:30:44.013Z,15.48
2023-04-27T10:33:15.932Z,14.97
2023-04-27T10:35:56.264Z,16.72
2023-04-27T10:38:30.979Z,16.34
2023-04-27T10:41:06.669Z,16.72
2023-04-27T10:43:38.803Z,16.80
2023-04-27T10:46:15.013Z,16.52
2023-04-27T10:48:44.201Z,17.02
2023-04-27T10:51:21.733Z,16.15
2023-04-27T10:54:04.386Z,15.56
2023-04-27T10:56:33.831Z,15.22
2023-04-27T10:59:08.725Z,15.31
2023-04-27T11:01:37.780Z,15.55
2023-04-27T11:04:08.486Z,15.98
2023-04-27T11:06:45.960Z,15.12
2023-04-27T11:09:30.003Z,15.65
2023-04-27T11:12:07.935Z,16.15
2023-04-27T11:14:37.248Z,16.97
2023-04-27T11:17:13.204Z,13.81
2023-04-27T11:19:54.268Z,15.43
2023-04-27T11:22:24.586Z,14.29
2023-04-27T11:25:16.893Z,14.07
2023-04-27T11:27:47.637Z,14.59
2023-04-27T11:30:24.936Z,16.63
2023-04-27T11:33:11.407Z,15.13
2023-04-27T11:35:42.782Z,16.79
2023-04-27T11:38:18.548Z,16.41
2023-04-27T11:40:48.181Z,15.95
2023-04-27T11:43:18.120Z,16.92
2023-04-27T11:45:45.615Z,15.18
2023-04-27T11:48:16.791Z,16.40
2023-04-27T11:50:51.799Z,17.08
2023-04-27T11:53:33.720Z,16.26
2023-04-27T11:56:07.781Z,15.95
2023-04-27T11:58:40.496Z,16.95
2023-04-27T12:01:13.158Z,16.86
2023-04-27T12:03:43.694Z,16.42
2023-04-27T12:06:32.187Z,15.67
2023-04-27T12:09:06.030Z,17.09
2023-04-27T12:11:33.507Z,16.40
2023-04-27T12:14:03.863Z,15.65
2023-04-27T12:16:31.181Z,17.47
2023-04-27T12:18:58.382Z,16.08
2023-04-27T12:21:26.195Z,17.18
2023-04-27T12:24:04.326Z,16.97
2023-04-27T12:26:31.763Z,16.52
2023-04-27T12:28:59.126Z,17.03
2023-04-27T12:31:31.799Z,17.65
2023-04-27T12:33:59.191Z,16.90
2023-04-27T12:36:29.925Z,17.08
2023-04-27T12:39:11.917Z,15.93
2023-04-27T12:41:39.414Z,15.19
2023-04-27T12:44:06.869Z,15.11
2023-04-27T12:46:35.508Z,16.93
2023-04-27T12:49:08.540Z,16.93
2023-04-27T12:51:41.747Z,17.13
2023-04-27T12:54:11.234Z,17.01
2023-04-27T12:56:40.738Z,17.72
2023-04-27T12:59:07.853Z,16.30
2023-04-27T13:01:35.101Z,16.91
2023-04-27T13:04:05.882Z,15.01
2023-04-27T13:06:33.404Z,14.04
2023-04-27T13:09:01.035Z,13.90
2023-04-27T13:11:28.380Z,14.52
2023-04-27T13:13:56.000Z,15.22
2023-04-27T13:16:25.675Z,15.27
2023-04-27T13:18:55.523Z,15.35
2023-04-27T13:21:23.427Z,15.53
2023-04-27T13:23:53.580Z,15.21
2023-04-27T13:26:21.148Z,16.37
2023-04-27T13:28:48.915Z,16.83
2023-04-27T13:31:16.171Z,17.73
2023-04-27T13:33:44.649Z,17.48
2023-04-27T13:36:13.602Z,17.99
2023-04-27T13:38:41.222Z,16.21
2023-04-27T13:41:09.294Z,18.20
2023-04-27T13:43:38.200Z,17.47
2023-04-27T13:46:05.575Z,17.87
2023-04-27T13:48:33.170Z,18.63
2023-04-27T13:51:00.583Z,16.28
2023-04-27T13:53:27.923Z,17.33
2023-04-27T13:55:58.153Z,18.76
2023-04-27T13:58:29.044Z,17.82
2023-04-27T14:00:57.677Z,16.81
2023-04-27T14:03:25.142Z,17.62
2023-04-27T14:05:52.416Z,18.93
2023-04-27T14:08:19.902Z,19.15
2023-04-27T14:10:49.668Z,19.71
2023-04-27T14:13:28.908Z,17.92
2023-04-27T14:15:56.026Z,16.94
2023-04-27T14:18:31.742Z,17.57
2023-04-27T14:21:13.153Z,19.76
2023-04-27T14:23:43.362Z,19.49
2023-04-27T14:26:10.644Z,19.56
2023-04-27T14:28:37.834Z,21.08
2023-04-27T14:31:05.004Z,20.34
2023-04-27T14:33:32.396Z,18.98
2023-04-27T14:36:00.221Z,20.17
2023-04-27T14:38:27.591Z,17.92
2023-04-27T14:40:54.708Z,20.78
2023-04-27T14:43:21.883Z,20.42
2023-04-27T14:45:52.671Z,20.64
2023-04-27T14:48:23.310Z,21.35
2023-04-27T14:50:53.033Z,20.96
2023-04-27T14:53:23.014Z,20.10
2023-04-27T14:55:50.329Z,21.90
2023-04-27T14:58:17.392Z,20.81
2023-04-27T15:00:44.558Z,21.92
2023-04-27T15:03:11.856Z,21.08
2023-04-27T15:05:39.221Z,21.33
2023-04-27T15:08:06.505Z,21.78
2023-04-27T15:10:33.703Z,21.31
2023-04-27T15:13:02.558Z,20.54
2023-04-27T15:15:30.038Z,20.49
2023-04-27T15:17:58.230Z,18.23
2023-04-27T15:20:25.573Z,18.83
2023-04-27T15:22:53.002Z,18.37
2023-04-27T15:25:20.324Z,17.35
2023-04-27T15:27:47.799Z,16.94
2023-04-27T15:30:16.409Z,16.51
2023-04-27T15:32:43.530Z,17.46
2023-04-27T15:35:10.821Z,17.50
2023-04-27T15:37:37.957Z,17.43
2023-04-27T15:40:09.899Z,17.81
2023-04-27T15:42:37.773Z,17.54
2023-04-27T15:45:07.068Z,17.73
2023-04-27T15:47:36.086Z,16.83
2023-04-27T15:50:03.463Z,17.39
2023-04-27T15:52:30.672Z,17.64
2023-04-27T15:54:57.739Z,17.60
2023-04-27T15:57:24.861Z,17.50
2023-04-27T15:59:52.472Z,17.21
2023-04-27T16:02:20.019Z,16.90
2023-04-27T16:04:48.774Z,16.59
2023-04-27T16:07:15.893Z,17.43
2023-04-27T16:09:43.015Z,16.98
2023-04-27T16:12:10.277Z,17.65
2023-04-27T16:14:38.073Z,17.11
2023-04-27T16:17:05.128Z,17.99
2023-04-27T16:19:32.172Z,17.28
2023-04-27T16:22:01.213Z,17.23
2023-04-27T16:24:31.399Z,17.54
2023-04-27T16:26:58.685Z,15.60
2023-04-27T16:29:26.076Z,16.97
2023-04-27T16:31:53.923Z,16.49
2023-04-27T16:34:24.013Z,17.16
2023-04-27T16:36:51.179Z,15.84
2023-04-27T16:39:19.361Z,17.75
2023-04-27T16:41:46.775Z,19.20
2023-04-27T16:44:14.822Z,19.48
2023-04-27T16:46:42.321Z,20.08
2023-04-27T16:49:10.288Z,20.49
2023-04-27T16:51:37.461Z,21.50
2023-04-27T16:54:04.519Z,18.58
2023-04-27T16:56:35.603Z,18.43
2023-04-27T16:59:04.191Z,16.51
2023-04-27T17:01:31.396Z,16.58
2023-04-27T17:04:01.081Z,16.66
2023-04-27T17:06:29.889Z,17.25
2023-04-27T17:08:57.865Z,18.45
2023-04-27T17:11:25.192Z,18.05
2023-04-27T17:13:55.459Z,17.55
2023-04-27T17:16:23.488Z,17.14
2023-04-27T17:18:50.752Z,16.37
2023-04-27T17:21:20.144Z,16.57
2023-04-27T17:23:51.610Z,17.56
2023-04-27T17:26:21.383Z,17.47
2023-04-27T17:28:49.541Z,17.16
2023-04-27T17:31:52.565Z,17.36
2023-04-27T17:34:22.719Z,17.61
2023-04-27T17:36:49.798Z,17.70
2023-04-27T17:39:17.562Z,15.38
2023-04-27T17:41:45.450Z,15.75
2023-04-27T17:44:12.797Z,14.90
2023-04-27T17:46:45.819Z,15.73
2023-04-27T17:49:13.644Z,17.30
2023-04-27T17:51:41.413Z,16.99
2023-04-27T17:54:08.711Z,16.71
2023-04-27T17:56:35.862Z,16.77
2023-04-27T17:59:04.293Z,16.53
2023-04-27T18:01:31.441Z,15.92
2023-04-27T18:04:01.107Z,16.15
2023-04-27T18:06:32.016Z,16.18
2023-04-27T18:08:59.645Z,15.99
2023-04-27T18:11:26.890Z,16.07
2023-04-27T18:13:58.180Z,16.37
2023-04-27T18:16:25.747Z,16.05
2023-04-27T18:18:52.982Z,15.70
2023-04-27T18:21:20.380Z,15.81
2023-04-27T18:23:47.466Z,15.72
2023-04-27T18:26:14.707Z,15.59
2023-04-27T18:28:41.850Z,15.52
2023-04-27T18:31:19.087Z,15.37
2023-04-27T18:33:47.084Z,15.33
2023-04-27T18:36:14.296Z,15.19
2023-04-27T18:38:41.486Z,14.88
2023-04-27T18:41:08.611Z,14.49
2023-04-27T18:43:36.766Z,14.38
2023-04-27T18:46:04.887Z,13.85
2023-04-27T18:48:32.576Z,13.36
2023-04-27T18:50:59.907Z,12.99
2023-04-27T18:53:28.205Z,12.76
2023-04-27T18:55:55.564Z,12.74
2023-04-27T18:58:23.613Z,12.46
2023-04-27T19:00:50.791Z,11.65
2023-04-27T19:03:17.965Z,11.57
2023-04-27T19:05:45.986Z,11.21
2023-04-27T19:08:13.062Z,10.52
2023-04-27T19:10:41.450Z,10.66
2023-04-27T19:13:08.640Z,10.85
2023-04-27T19:15:35.826Z,11.33
2023-04-27T19:18:10.413Z,10.42
2023-04-27T19:20:39.550Z,9.73
2023-04-27T19:23:09.159Z,9.41
2023-04-27T19:25:36.719Z,9.32
2023-04-27T19:28:05.695Z,9.36
2023-04-27T19:30:32.820Z,9.38
2023-04-27T19:33:00.223Z,9.85
2023-04-27T19:35:27.520Z,9.96
2023-04-27T19:37:54.702Z,10.09
2023-04-27T19:40:21.873Z,10.08
2023-04-27T19:42:49.783Z,10.07
2023-04-27T19:45:17.970Z,9.98
2023-04-27T19:47:45.918Z,9.56
2023-04-27T19:50:13.133Z,9.13
2023-04-27T19:52:40.593Z,9.35
2023-04-27T19:55:08.483Z,9.82
2023-04-27T19:57:36.699Z,9.81
2023-04-27T20:00:06.833Z,9.12
2023-04-27T20:02:34.083Z,8.72
2023-04-27T20:05:01.730Z,8.41
2023-04-27T20:07:29.180Z,8.41
2023-04-27T20:09:59.300Z,8.01
2023-04-27T20:12:47.515Z,7.99
2023-04-27T20:15:14.141Z,8.02
2023-04-27T20:17:42.218Z,7.74
2023-04-27T20:20:10.910Z,7.88
2023-04-27T20:22:38.813Z,7.60
2023-04-27T20:25:07.833Z,7.56
2023-04-27T20:27:35.726Z,7.45
2023-04-27T20:30:03.563Z,7.25
2023-04-27T20:32:30.803Z,7.07
2023-04-27T20:34:58.880Z,6.87
2023-04-27T20:37:26.918Z,6.72
2023-04-27T20:39:54.522Z,7.06
2023-04-27T20:42:21.572Z,7.34
2023-04-27T20:44:48.825Z,7.66
2023-04-27T20:47:18.802Z,7.40
2023-04-27T20:49:46.276Z,7.16
2023-04-27T20:52:13.412Z,7.33
2023-04-27T20:54:40.971Z,7.33
2023-04-27T20:57:13.302Z,7.29
2023-04-27T20:59:43.801Z,7.65
2023-04-27T21:02:10.916Z,7.42
2023-04-27T21:04:38.426Z,7.38
2023-04-27T21:07:08.093Z,7.39
2023-04-27T21:09:36.328Z,7.41
2023-04-27T21:12:03.463Z,7.46
2023-04-27T21:14:31.159Z,7.30
2023-04-27T21:16:58.319Z,7.21
2023-04-27T21:19:25.598Z,7.62
2023-04-27T21:21:52.660Z,7.76
2023-04-27T21:24:19.954Z,7.53
2023-04-27T21:26:47.103Z,7.20
2023-04-27T21:29:14.124Z,7.28
2023-04-27T21:31:41.278Z,7.34
2023-04-27T21:34:08.765Z,7.44
2023-04-27T21:36:37.150Z,7.16
2023-04-27T21:39:05.016Z,6.87
2023-04-27T21:41:33.887Z,6.63
2023-04-27T21:44:01.040Z,6.35
2023-04-27T21:46:28.131Z,6.46
2023-04-27T21:48:55.354Z,6.62
2023-04-27T21:51:22.452Z,6.82
2023-04-27T21:53:49.860Z,7.27
2023-04-27T21:56:16.901Z,6.68
2023-04-27T21:58:44.524Z,6.67
2023-04-27T22:01:13.057Z,6.47
2023-04-27T22:03:40.809Z,6.47
2023-04-27T22:06:09.022Z,6.65
2023-04-27T22:08:36.406Z,6.57
2023-04-27T22:11:03.494Z,6.59
2023-04-27T22:13:30.806Z,6.63
2023-04-27T22:15:58.004Z,6.59
2023-04-27T22:18:25.709Z,6.46
2023-04-27T22:20:56.255Z,6.48
2023-04-27T22:23:26.530Z,6.41
2023-04-27T22:25:55.996Z,5.94
2023-04-27T22:28:23.621Z,5.83
2023-04-27T22:30:50.872Z,6.03
2023-04-27T22:33:18.507Z,6.35
2023-04-27T22:35:46.128Z,6.22
2023-04-27T22:38:14.184Z,6.45
2023-04-27T22:40:41.364Z,6.27
2023-04-27T22:43:08.400Z,5.79
2023-04-27T22:45:38.093Z,6.51
2023-04-27T22:48:06.656Z,6.39
2023-04-27T22:50:34.133Z,6.38
2023-04-27T22:53:01.298Z,5.95
2023-04-27T22:55:28.445Z,6.19
2023-04-27T22:57:55.649Z,6.62
2023-04-27T23:00:22.747Z,6.57
2023-04-27T23:02:50.066Z,6.60
2023-04-27T23:05:17.652Z,6.42
2023-04-27T23:07:46.237Z,5.72
2023-04-27T23:10:15.045Z,5.44
2023-04-27T23:12:42.272Z,5.55
2023-04-27T23:15:10.604Z,5.20
2023-04-27T23:17:38.093Z,5.59
2023-04-27T23:20:11.146Z,5.81
2023-04-27T23:22:44.772Z,5.70
2023-04-27T23:25:12.088Z,6.10
2023-04-27T23:27:39.187Z,5.79
2023-04-27T23:30:08.118Z,5.75
2023-04-27T23:32:36.746Z,5.31
2023-04-27T23:35:04.681Z,5.59
2023-04-27T23:37:31.769Z,6.00
2023-04-27T23:39:58.827Z,6.09
2023-04-27T23:42:25.889Z,6.08
2023-04-27T23:44:53.162Z,5.68
2023-04-27T23:47:20.203Z,5.30
2023-04-27T23:49:47.277Z,5.33
2023-04-27T23:52:14.342Z,5.11
2023-04-27T23:54:41.441Z,5.77
2023-04-27T23:57:08.561Z,6.73
2023-04-27T23:59:36.382Z,5.79
